Terminal Aerodrome Forecast
Issued by NWS

Home | Current Version | Previous Version | Text Only | Print | Product List | Glossary On
Versions: 1 2 3 4 5 6 7 8 9 10 11 12 13 14 15 16 17 18 19 20 21 22 23 24 25 26
000
FTUS45 KGJT 172332
TAFDRO
TAF
KDRO 172332Z 1800/1824 02012KT P6SM VCTS SCT060CB BKN100
      TEMPO 1800/1801 VRB15G25KT -SHRA BKN060
     FM180100 33005KT P6SM VCSH FEW070 SCT110
     FM180600 02004KT P6SM FEW200
     FM181400 09005KT P6SM SKC
     FM182000 27008KT P6SM SCT100=

USA.gov is the U.S. government's official web portal to all federal, state and local government web resources and services.